Time;durP1;ratioP1;P1;durP2;ratioP2;P2;SDS_P1;SDS_P2;PMS_P1;PMS_P2;Temp;Humidity;BMP_temperature;BMP_pressure;BME280_temperature;BME280_humidity;BME280_pressure;Samples;Min_cycle;Max_cycle;Signal;HPM_P1;HPM_P2
2021/07/10 00:00:49;;;;;;;9.80;8.10;;;14.70;99.90;;;;;;5052978;28;20879;-51
2021/07/10 00:03:17;;;;;;;7.40;6.70;;;14.70;99.90;;;;;;5043813;28;20519;-50
2021/07/10 00:05:44;;;;;;;10.07;7.00;;;14.70;99.90;;;;;;5046205;28;20456;-50
2021/07/10 00:08:11;;;;;;;7.50;6.70;;;14.60;99.90;;;;;;5052946;28;20540;-50
2021/07/10 00:10:38;;;;;;;7.60;6.50;;;14.70;99.90;;;;;;5053410;28;20964;-50
2021/07/10 00:13:05;;;;;;;8.57;6.90;;;14.80;99.90;;;;;;5053102;28;20509;-50
2021/07/10 00:15:32;;;;;;;11.77;7.20;;;14.90;99.90;;;;;;5053447;28;20871;-50
2021/07/10 00:17:59;;;;;;;10.70;8.10;;;14.80;99.90;;;;;;5053047;28;20468;-50
2021/07/10 00:20:28;;;;;;;9.80;8.47;;;14.80;99.90;;;;;;5052211;28;20451;-50
2021/07/10 00:22:54;;;;;;;11.47;8.23;;;14.80;99.90;;;;;;5052835;28;20452;-49
2021/07/10 00:25:21;;;;;;;9.20;8.10;;;14.70;99.90;;;;;;5052882;28;20509;-50
2021/07/10 00:27:51;;;;;;;9.40;8.20;;;14.70;99.90;;;;;;5052522;28;20491;-50
2021/07/10 00:30:20;;;;;;;11.27;8.73;;;14.70;99.90;;;;;;5053152;28;20455;-50
2021/07/10 00:32:47;;;;;;;8.63;7.10;;;14.60;99.90;;;;;;5052016;28;20912;-50
2021/07/10 00:35:16;;;;;;;10.00;7.00;;;14.60;99.90;;;;;;5052205;28;20506;-50
2021/07/10 00:37:45;;;;;;;8.33;6.60;;;14.60;99.90;;;;;;5052376;28;20541;-50
2021/07/10 00:40:13;;;;;;;7.93;7.13;;;14.60;99.90;;;;;;5052614;28;20448;-50
2021/07/10 00:42:41;;;;;;;7.80;6.50;;;14.60;99.90;;;;;;5052609;28;20521;-50
2021/07/10 00:45:10;;;;;;;8.10;6.73;;;14.60;99.90;;;;;;5052488;28;20452;-50
2021/07/10 00:47:38;;;;;;;6.93;6.23;;;14.60;99.90;;;;;;5051857;28;20484;-49
2021/07/10 00:50:11;;;;;;;8.70;6.63;;;14.50;99.90;;;;;;5052387;28;20460;-50
2021/07/10 00:52:38;;;;;;;7.20;6.33;;;14.50;99.90;;;;;;5051936;28;20452;-50
2021/07/10 00:55:08;;;;;;;6.17;5.57;;;14.60;99.90;;;;;;5051512;28;20837;-50
2021/07/10 00:57:37;;;;;;;6.60;5.90;;;14.60;99.90;;;;;;5051681;28;20468;-49
2021/07/10 01:00:08;;;;;;;6.03;5.50;;;14.60;99.90;;;;;;5051604;28;20467;-50
2021/07/10 01:02:35;;;;;;;5.97;5.43;;;14.60;99.90;;;;;;5051914;28;20513;-50
2021/07/10 01:05:02;;;;;;;6.40;5.60;;;14.60;99.90;;;;;;5051154;28;20456;-50
2021/07/10 01:07:29;;;;;;;6.07;5.47;;;14.60;99.90;;;;;;5050886;28;20533;-50
2021/07/10 01:09:56;;;;;;;5.53;5.03;;;14.60;99.90;;;;;;5052006;28;20447;-49
2021/07/10 01:12:25;;;;;;;5.70;4.63;;;14.60;99.90;;;;;;5051536;28;20451;-50
2021/07/10 01:14:52;;;;;;;5.43;4.93;;;14.60;99.90;;;;;;5050921;28;20513;-50
2021/07/10 01:17:19;;;;;;;6.33;5.33;;;14.60;99.90;;;;;;5049316;28;20460;-50
2021/07/10 01:19:57;;;;;;;7.07;5.07;;;14.60;99.90;;;;;;5051424;28;20448;-50
2021/07/10 01:22:26;;;;;;;5.27;4.70;;;14.60;99.90;;;;;;5049519;28;20513;-50
2021/07/10 01:24:53;;;;;;;5.90;5.40;;;14.60;99.90;;;;;;5050674;28;20452;-50
2021/07/10 01:27:20;;;;;;;6.57;5.70;;;14.50;99.90;;;;;;5051472;28;20487;-50
2021/07/10 01:29:48;;;;;;;7.13;5.23;;;14.50;99.90;;;;;;5051558;28;20456;-50
2021/07/10 01:32:17;;;;;;;7.77;6.33;;;14.40;99.90;;;;;;5051404;28;20440;-50
2021/07/10 01:34:45;;;;;;;6.17;5.30;;;14.40;99.90;;;;;;5050180;28;20479;-50
2021/07/10 01:37:13;;;;;;;5.67;5.03;;;14.30;99.90;;;;;;5050732;28;20444;-50
2021/07/10 01:39:42;;;;;;;6.03;5.43;;;14.30;99.90;;;;;;5051456;28;20513;-50
2021/07/10 01:42:09;;;;;;;7.67;5.37;;;14.30;99.90;;;;;;5050788;28;20497;-50
2021/07/10 01:44:36;;;;;;;6.03;5.43;;;14.20;99.90;;;;;;5050432;28;20455;-50
2021/07/10 01:47:04;;;;;;;7.40;4.70;;;14.20;99.90;;;;;;5051106;28;20583;-50
2021/07/10 01:49:31;;;;;;;6.90;5.50;;;14.30;99.90;;;;;;5051178;28;20505;-49
2021/07/10 01:52:01;;;;;;;6.03;4.93;;;14.30;99.90;;;;;;5050793;28;20447;-50
2021/07/10 01:54:28;;;;;;;5.30;4.80;;;14.30;99.90;;;;;;5051695;28;20455;-50
2021/07/10 01:56:56;;;;;;;5.80;5.10;;;14.40;99.90;;;;;;5050135;28;20828;-50
2021/07/10 01:59:23;;;;;;;6.70;6.00;;;14.30;99.90;;;;;;5050992;28;20509;-50
2021/07/10 02:01:54;;;;;;;8.80;6.10;;;14.30;99.90;;;;;;5050271;28;20501;-49
2021/07/10 02:04:22;;;;;;;5.40;4.90;;;14.20;99.90;;;;;;5051200;28;20451;-50
2021/07/10 02:06:49;;;;;;;8.03;5.33;;;14.10;99.90;;;;;;5051240;28;20516;-49
2021/07/10 02:09:16;;;;;;;5.73;5.23;;;14.10;99.90;;;;;;5051749;28;20552;-50
2021/07/10 02:11:47;;;;;;;7.07;5.63;;;14.10;99.90;;;;;;5055161;28;20452;-50
2021/07/10 02:14:17;;;;;;;5.33;4.83;;;14.10;99.90;;;;;;5055623;28;20448;-50
2021/07/10 02:16:45;;;;;;;7.63;6.27;;;14.00;99.90;;;;;;5054996;28;20448;-50
2021/07/10 02:19:12;;;;;;;8.33;5.70;;;14.10;99.90;;;;;;5054044;28;20472;-50
2021/07/10 02:21:39;;;;;;;6.67;5.90;;;13.90;99.90;;;;;;5054367;28;20451;-50
2021/07/10 02:24:07;;;;;;;6.70;5.23;;;14.00;99.90;;;;;;5054688;28;20456;-50
2021/07/10 02:26:34;;;;;;;5.87;5.27;;;14.00;99.90;;;;;;5054740;28;20447;-50
2021/07/10 02:29:02;;;;;;;6.77;5.40;;;14.00;99.90;;;;;;5054852;28;20491;-50
2021/07/10 02:31:30;;;;;;;6.60;5.90;;;14.00;99.90;;;;;;5054948;28;20965;-50
2021/07/10 02:33:57;;;;;;;8.23;6.57;;;14.00;99.90;;;;;;5053335;28;20443;-50
2021/07/10 02:36:24;;;;;;;7.03;6.33;;;14.00;99.90;;;;;;5054772;28;20969;-50
2021/07/10 02:38:51;;;;;;;7.57;6.50;;;13.90;99.90;;;;;;5054835;28;20501;-50
2021/07/10 02:41:18;;;;;;;6.47;5.87;;;14.00;99.90;;;;;;5054067;28;20517;-51
2021/07/10 02:43:45;;;;;;;6.13;5.53;;;13.90;99.90;;;;;;5054565;28;20455;-50
2021/07/10 02:46:13;;;;;;;7.10;6.40;;;13.90;99.90;;;;;;5054514;28;21018;-50
2021/07/10 02:48:41;;;;;;;8.80;6.20;;;13.90;99.90;;;;;;5054768;28;20487;-50
2021/07/10 02:51:08;;;;;;;7.73;6.93;;;13.90;99.90;;;;;;5053796;28;20448;-50
2021/07/10 02:53:35;;;;;;;6.63;5.70;;;13.90;99.90;;;;;;5053746;28;20452;-50
2021/07/10 02:56:03;;;;;;;8.40;6.57;;;13.90;99.90;;;;;;5053880;28;20452;-50
2021/07/10 02:58:30;;;;;;;7.40;5.87;;;13.80;99.90;;;;;;5053092;28;20463;-50
2021/07/10 03:00:57;;;;;;;7.50;6.80;;;13.80;99.90;;;;;;5054828;28;20444;-50
2021/07/10 03:03:24;;;;;;;6.57;5.87;;;13.80;99.90;;;;;;5054115;28;20448;-50
2021/07/10 03:05:52;;;;;;;6.73;5.93;;;13.80;99.90;;;;;;5053775;28;20455;-50
2021/07/10 03:08:20;;;;;;;9.40;6.27;;;13.80;99.90;;;;;;5054052;28;20533;-49
2021/07/10 03:10:47;;;;;;;7.57;6.17;;;13.80;99.90;;;;;;5053528;28;20452;-50
2021/07/10 03:13:15;;;;;;;8.90;6.40;;;13.80;99.90;;;;;;5053338;28;20454;-49
2021/07/10 03:15:42;;;;;;;8.93;6.60;;;13.80;99.90;;;;;;5053761;28;20451;-50
2021/07/10 03:18:10;;;;;;;7.60;6.60;;;13.80;99.90;;;;;;5052962;28;21130;-50
2021/07/10 03:20:37;;;;;;;6.43;5.63;;;13.70;99.90;;;;;;5052052;28;20873;-50
2021/07/10 03:23:05;;;;;;;8.30;5.67;;;13.70;99.90;;;;;;5052224;28;20444;-50
2021/07/10 03:25:32;;;;;;;8.50;6.30;;;13.70;99.90;;;;;;5054332;28;20953;-50
2021/07/10 03:28:00;;;;;;;6.80;6.20;;;13.70;99.90;;;;;;5053550;28;20851;-49
2021/07/10 03:30:28;;;;;;;6.70;6.00;;;13.70;99.90;;;;;;5053518;28;20462;-49
2021/07/10 03:32:55;;;;;;;6.20;5.37;;;13.60;99.90;;;;;;5052795;28;20477;-49
2021/07/10 03:35:23;;;;;;;5.87;5.33;;;13.50;99.90;;;;;;5053063;28;20459;-49
2021/07/10 03:37:52;;;;;;;7.30;6.50;;;13.50;99.90;;;;;;5053362;28;20501;-50
2021/07/10 03:40:23;;;;;;;6.80;5.70;;;13.40;99.90;;;;;;5054063;28;20452;-50
2021/07/10 03:42:50;;;;;;;6.80;5.00;;;13.50;99.90;;;;;;5049121;28;20452;-49
2021/07/10 03:45:17;;;;;;;5.97;5.20;;;13.40;99.90;;;;;;5047417;28;20463;-50
2021/07/10 03:47:44;;;;;;;6.23;4.73;;;13.50;99.90;;;;;;5052766;28;21118;-50
2021/07/10 03:50:14;;;;;;;4.70;4.30;;;13.50;99.90;;;;;;5053095;28;20517;-50
2021/07/10 03:52:41;;;;;;;5.50;5.00;;;13.60;99.90;;;;;;5053450;28;20452;-50
2021/07/10 03:55:12;;;;;;;6.17;5.57;;;13.60;99.90;;;;;;5053498;28;20505;-50
2021/07/10 03:57:41;;;;;;;5.30;4.80;;;13.60;99.90;;;;;;5051216;28;20481;-50
2021/07/10 04:00:10;;;;;;;6.60;5.90;;;13.70;99.90;;;;;;5052858;28;20873;-50
2021/07/10 04:02:39;;;;;;;7.90;5.60;;;13.60;99.90;;;;;;5052786;28;20834;-50
2021/07/10 04:05:07;;;;;;;6.47;5.87;;;13.60;99.90;;;;;;5046805;28;20467;-49
2021/07/10 04:07:34;;;;;;;7.80;5.90;;;13.50;99.90;;;;;;5042894;28;20488;-50
2021/07/10 04:10:02;;;;;;;6.53;5.83;;;13.50;99.90;;;;;;5046298;28;20449;-50
2021/07/10 04:12:29;;;;;;;5.93;5.33;;;13.50;99.90;;;;;;5038467;28;20455;-50
2021/07/10 04:15:00;;;;;;;6.20;5.40;;;13.50;99.90;;;;;;5047440;28;20986;-50
2021/07/10 04:17:28;;;;;;;5.83;5.33;;;13.60;99.90;;;;;;5036258;28;20479;-51
2021/07/10 04:19:56;;;;;;;6.60;5.90;;;13.60;99.90;;;;;;5051254;28;20440;-50
2021/07/10 04:22:23;;;;;;;8.43;5.97;;;13.70;99.90;;;;;;5050876;28;20451;-51
2021/07/10 04:24:51;;;;;;;6.43;5.60;;;13.70;99.90;;;;;;5045073;28;20471;-53
2021/07/10 04:27:18;;;;;;;6.13;5.43;;;13.70;99.90;;;;;;5044055;28;20471;-50
2021/07/10 04:29:48;;;;;;;5.93;4.97;;;13.70;99.90;;;;;;5050318;28;20455;-51
2021/07/10 04:32:17;;;;;;;7.27;6.57;;;13.80;99.90;;;;;;5048014;28;20482;-52
2021/07/10 04:34:44;;;;;;;6.93;5.73;;;13.90;99.90;;;;;;5034596;28;20912;-50
2021/07/10 04:37:11;;;;;;;6.57;5.87;;;14.00;99.90;;;;;;5043046;28;20526;-52
2021/07/10 04:39:38;;;;;;;8.03;6.50;;;14.00;99.90;;;;;;5035894;28;20509;-51
2021/07/10 04:42:06;;;;;;;8.63;5.93;;;14.00;99.90;;;;;;5034024;28;20464;-50
2021/07/10 04:44:33;;;;;;;7.27;5.90;;;14.10;99.90;;;;;;5046346;28;20456;-52
2021/07/10 04:47:00;;;;;;;7.33;6.20;;;14.20;99.90;;;;;;5046165;28;20465;-50
2021/07/10 04:49:29;;;;;;;9.57;6.43;;;14.40;99.90;;;;;;5043579;28;20542;-51
2021/07/10 04:52:01;;;;;;;6.70;6.10;;;14.50;99.90;;;;;;5041855;28;20460;-53
2021/07/10 04:54:28;;;;;;;8.27;6.10;;;14.70;99.90;;;;;;5045942;28;20448;-53
2021/07/10 04:56:58;;;;;;;8.10;6.07;;;14.80;99.90;;;;;;5033952;28;20506;-50
2021/07/10 04:59:25;;;;;;;10.27;5.47;;;14.80;99.90;;;;;;5032068;28;20455;-49
2021/07/10 05:01:52;;;;;;;8.63;6.10;;;14.80;99.90;;;;;;5037782;28;20448;-49
2021/07/10 05:04:19;;;;;;;6.10;5.50;;;15.00;99.90;;;;;;5038100;28;20451;-49
2021/07/10 05:06:48;;;;;;;7.27;5.57;;;15.40;99.90;;;;;;5043688;28;20444;-50
2021/07/10 05:09:15;;;;;;;5.47;4.97;;;16.20;99.90;;;;;;5041729;28;20899;-49
2021/07/10 05:11:42;;;;;;;4.90;4.50;;;17.20;99.90;;;;;;5046699;28;21016;-49
2021/07/10 05:14:09;;;;;;;4.70;4.30;;;18.20;99.90;;;;;;5046226;28;21216;-50
2021/07/10 05:16:37;;;;;;;8.63;4.03;;;19.00;99.90;;;;;;5046132;28;20523;-49
2021/07/10 05:19:05;;;;;;;3.30;3.00;;;20.10;99.90;;;;;;5038799;28;20472;-50
2021/07/10 05:21:33;;;;;;;3.90;3.50;;;21.00;99.90;;;;;;5045235;28;20484;-50
2021/07/10 05:24:01;;;;;;;5.90;3.67;;;21.60;99.90;;;;;;5041231;28;20444;-50
2021/07/10 05:26:28;;;;;;;3.70;3.40;;;22.20;99.90;;;;;;5035407;28;20452;-50
2021/07/10 05:28:55;;;;;;;3.20;3.00;;;22.50;99.90;;;;;;5032964;28;21071;-50
2021/07/10 05:31:22;;;;;;;4.27;3.17;;;22.90;99.90;;;;;;5044316;28;20455;-49
2021/07/10 05:33:50;;;;;;;4.07;3.30;;;23.00;99.90;;;;;;5046358;28;20501;-50
2021/07/10 05:36:17;;;;;;;4.33;3.80;;;23.30;99.90;;;;;;5042782;28;20452;-50
2021/07/10 05:38:44;;;;;;;3.43;3.13;;;23.50;99.90;;;;;;5041920;28;20476;-50
2021/07/10 05:41:12;;;;;;;4.70;3.27;;;23.70;99.90;;;;;;5041122;28;20485;-51
2021/07/10 05:43:41;;;;;;;3.95;3.55;;;24.00;99.90;;;;;;5033919;28;20451;-50
2021/07/10 05:46:09;;;;;;;3.20;3.00;;;24.20;99.90;;;;;;5040172;28;20197;-51
2021/07/10 05:48:36;;;;;;;2.80;2.60;;;24.40;99.90;;;;;;5032424;28;20480;-51
2021/07/10 05:51:03;;;;;;;3.70;2.80;;;24.40;99.90;;;;;;5042384;28;20452;-51
2021/07/10 05:53:31;;;;;;;4.37;2.90;;;24.10;99.90;;;;;;5044702;28;20455;-51
2021/07/10 05:55:58;;;;;;;2.63;2.40;;;24.00;99.90;;;;;;5038806;28;20449;-50
2021/07/10 05:58:27;;;;;;;2.63;2.47;;;24.00;99.90;;;;;;5039107;28;20471;-50
2021/07/10 06:00:54;;;;;;;4.67;2.63;;;24.40;99.90;;;;;;5033968;28;21146;-51
2021/07/10 06:03:21;;;;;;;2.50;2.40;;;24.60;99.90;;;;;;5032543;28;20456;-51
2021/07/10 06:05:48;;;;;;;3.13;2.83;;;24.40;99.90;;;;;;5030880;28;20444;-50
2021/07/10 06:08:15;;;;;;;3.93;2.97;;;24.60;99.90;;;;;;5030779;28;20488;-50
2021/07/10 06:10:42;;;;;;;3.37;3.03;;;24.10;99.90;;;;;;5036787;28;20443;-51
2021/07/10 06:13:09;;;;;;;6.53;2.90;;;24.40;99.90;;;;;;5030918;28;20964;-51
2021/07/10 06:15:37;;;;;;;3.27;2.97;;;24.80;99.90;;;;;;5030791;28;20449;-50
2021/07/10 06:18:05;;;;;;;2.90;2.70;;;24.40;99.90;;;;;;5030650;28;20969;-50
2021/07/10 06:20:34;;;;;;;4.40;2.93;;;24.30;99.90;;;;;;5030853;28;20479;-50
2021/07/10 06:23:04;;;;;;;3.00;2.80;;;24.10;99.90;;;;;;5046215;28;20452;-50
2021/07/10 06:25:32;;;;;;;2.80;2.60;;;24.30;99.90;;;;;;5051132;28;20875;-50
2021/07/10 06:28:00;;;;;;;3.37;3.07;;;24.80;99.90;;;;;;5051129;28;20478;-51
2021/07/10 06:30:27;;;;;;;2.83;2.63;;;25.40;99.90;;;;;;5050955;28;20456;-50
2021/07/10 06:32:55;;;;;;;4.33;2.87;;;25.50;99.90;;;;;;5050682;28;20451;-50
2021/07/10 06:35:22;;;;;;;3.67;2.67;;;25.30;99.90;;;;;;5051311;28;20493;-51
2021/07/10 06:37:49;;;;;;;3.53;2.77;;;25.40;99.90;;;;;;5046110;28;20620;-50
2021/07/10 06:40:18;;;;;;;2.60;2.40;;;25.30;99.90;;;;;;5032548;28;20499;-50
2021/07/10 06:42:46;;;;;;;5.47;2.70;;;25.80;99.90;;;;;;5038086;28;20463;-49
2021/07/10 06:45:15;;;;;;;3.57;2.90;;;25.90;99.90;;;;;;5048029;28;20454;-50
2021/07/10 06:47:42;;;;;;;2.73;2.53;;;25.70;99.90;;;;;;5051006;28;20873;-50
2021/07/10 06:50:13;;;;;;;3.20;2.80;;;26.00;99.90;;;;;;5051173;28;20907;-50
2021/07/10 06:52:40;;;;;;;3.13;2.80;;;25.60;99.90;;;;;;5050713;28;20961;-50
2021/07/10 06:55:09;;;;;;;3.37;3.17;;;25.80;99.90;;;;;;5051533;28;20509;-50
2021/07/10 06:57:37;;;;;;;3.50;2.63;;;25.80;99.90;;;;;;5054644;28;20532;-51
2021/07/10 07:00:06;;;;;;;3.90;3.20;;;26.20;99.90;;;;;;5054811;28;20443;-51
2021/07/10 07:02:32;;;;;;;3.63;3.33;;;26.60;99.90;;;;;;5053982;28;20509;-51
2021/07/10 07:04:59;;;;;;;2.93;2.70;;;27.00;99.90;;;;;;5054814;28;20497;-50
2021/07/10 07:07:28;;;;;;;3.10;2.90;;;27.00;99.90;;;;;;5054366;28;20467;-50
2021/07/10 07:09:55;;;;;;;3.73;3.20;;;27.20;99.90;;;;;;5054533;28;20483;-50
2021/07/10 07:12:22;;;;;;;3.53;3.00;;;27.30;99.90;;;;;;5054269;28;20451;-51
2021/07/10 07:14:49;;;;;;;3.63;2.70;;;27.20;99.90;;;;;;5054647;28;20509;-51
2021/07/10 07:17:15;;;;;;;2.50;2.40;;;27.40;99.90;;;;;;5054494;28;20509;-50
2021/07/10 07:19:42;;;;;;;3.27;2.93;;;27.50;99.90;;;;;;5049446;28;20444;-51
2021/07/10 07:22:09;;;;;;;2.60;2.50;;;27.40;99.90;;;;;;5053690;28;20444;-51
2021/07/10 07:24:38;;;;;;;3.80;2.77;;;27.20;99.90;;;;;;5054622;28;20444;-51
2021/07/10 07:27:06;;;;;;;3.07;2.87;;;27.70;99.90;;;;;;5054477;28;20509;-51
2021/07/10 07:29:32;;;;;;;2.77;2.57;;;28.10;99.90;;;;;;5054128;28;20483;-51
2021/07/10 07:32:00;;;;;;;3.57;3.27;;;28.40;99.90;;;;;;5053493;28;20451;-51
2021/07/10 07:34:26;;;;;;;3.73;2.97;;;28.30;99.90;;;;;;5053969;28;20451;-52
2021/07/10 07:36:57;;;;;;;3.43;2.80;;;28.30;99.90;;;;;;5054031;28;20448;-51
2021/07/10 07:39:24;;;;;;;2.90;2.70;;;28.60;99.90;;;;;;5055505;22;20497;-57
2021/07/10 07:41:52;;;;;;;3.30;3.00;;;28.60;99.90;;;;;;5012540;28;21029;-58
2021/07/10 07:44:19;;;;;;;3.20;2.90;;;27.80;99.90;;;;;;5013728;28;20520;-56
2021/07/10 07:46:46;;;;;;;2.70;2.60;;;27.50;99.90;;;;;;5014184;28;20512;-57
2021/07/10 07:49:13;;;;;;;2.80;2.60;;;27.80;99.90;;;;;;5014162;28;20522;-57
2021/07/10 07:51:40;;;;;;;2.50;2.40;;;28.40;99.90;;;;;;5013578;28;20528;-59
2021/07/10 07:54:07;;;;;;;3.13;2.80;;;27.70;99.90;;;;;;5013472;28;20450;-57
2021/07/10 07:56:34;;;;;;;3.17;2.97;;;27.90;99.90;;;;;;5013543;28;20450;-59
2021/07/10 07:59:05;;;;;;;3.73;2.40;;;28.00;99.90;;;;;;5013647;28;20994;-59
2021/07/10 08:01:32;;;;;;;3.17;2.77;;;28.50;99.90;;;;;;5012898;28;20489;-59
2021/07/10 08:03:59;;;;;;;3.27;2.97;;;28.40;99.90;;;;;;5013854;28;20449;-59
2021/07/10 08:06:26;;;;;;;3.10;2.87;;;29.00;99.90;;;;;;5013599;28;20496;-59
2021/07/10 08:08:53;;;;;;;6.80;2.93;;;29.00;99.90;;;;;;5012788;28;20979;-59
2021/07/10 08:11:20;;;;;;;2.73;2.60;;;28.60;99.90;;;;;;5012739;28;20454;-59
2021/07/10 08:13:48;;;;;;;3.03;2.83;;;28.50;99.90;;;;;;5013000;28;20454;-59
2021/07/10 08:16:16;;;;;;;2.83;2.63;;;28.10;99.90;;;;;;5013603;28;20450;-59
2021/07/10 08:18:43;;;;;;;2.43;2.33;;;27.90;99.90;;;;;;5013514;28;21019;-59
2021/07/10 08:21:10;;;;;;;3.00;2.77;;;28.40;99.90;;;;;;5012220;28;20480;-59
2021/07/10 08:23:37;;;;;;;2.93;2.70;;;28.80;99.90;;;;;;5012606;28;20461;-59
2021/07/10 08:26:04;;;;;;;3.20;3.00;;;29.20;99.90;;;;;;5013045;28;20428;-59
2021/07/10 08:28:31;;;;;;;3.20;3.00;;;29.50;99.90;;;;;;5013041;28;20500;-59
2021/07/10 08:30:59;;;;;;;4.90;2.87;;;29.70;99.90;;;;;;5013516;28;20504;-59
2021/07/10 08:33:27;;;;;;;3.17;2.97;;;28.50;99.90;;;;;;5012207;28;20461;-59
2021/07/10 08:35:54;;;;;;;3.20;3.00;;;28.20;99.90;;;;;;5012998;28;20503;-59
2021/07/10 08:38:21;;;;;;;2.83;2.60;;;28.70;99.90;;;;;;5012756;28;20516;-59
2021/07/10 08:40:51;;;;;;;4.67;2.80;;;29.10;99.90;;;;;;5012899;28;20441;-59
2021/07/10 08:43:19;;;;;;;3.30;2.83;;;28.20;99.90;;;;;;5012244;28;20461;-58
2021/07/10 08:45:47;;;;;;;3.50;3.30;;;28.10;99.90;;;;;;5013374;28;20454;-59
2021/07/10 08:48:15;;;;;;;3.30;3.10;;;28.70;99.90;;;;;;5012312;28;20458;-59
2021/07/10 08:50:43;;;;;;;4.23;3.93;;;28.60;99.90;;;;;;5012340;28;20986;-59
2021/07/10 08:53:11;;;;;;;4.00;3.60;;;29.00;99.90;;;;;;5012339;28;20488;-56
2021/07/10 08:55:38;;;;;;;3.43;3.23;;;27.80;99.90;;;;;;5012621;28;20878;-59
2021/07/10 08:58:05;;;;;;;4.73;4.20;;;28.20;99.90;;;;;;5012659;28;20828;-59
2021/07/10 09:00:35;;;;;;;5.10;4.70;;;29.10;99.90;;;;;;5012533;28;20476;-59
2021/07/10 09:03:02;;;;;;;6.90;6.20;;;28.20;99.90;;;;;;5012398;28;20449;-56
2021/07/10 09:05:29;;;;;;;5.60;5.20;;;27.50;99.90;;;;;;5012762;28;20460;-56
2021/07/10 09:08:19;;;;;;;5.97;5.37;;;27.60;99.90;;;;;;5012550;28;20449;-56
2021/07/10 09:10:49;;;;;;;6.87;6.37;;;26.80;99.90;;;;;;5011069;28;20489;-56
2021/07/10 09:13:16;;;;;;;7.97;6.20;;;25.60;99.90;;;;;;5011883;28;20512;-56
2021/07/10 09:15:44;;;;;;;5.97;5.47;;;26.20;99.90;;;;;;5012261;28;20952;-56
2021/07/10 09:18:13;;;;;;;6.80;6.20;;;26.50;99.90;;;;;;5012264;28;20450;-56
2021/07/10 09:20:42;;;;;;;7.27;6.63;;;26.60;99.90;;;;;;5011178;28;20449;-56
2021/07/10 09:23:28;;;;;;;7.97;7.33;;;25.20;99.90;;;;;;5012167;28;20507;-56
2021/07/10 09:26:15;;;;;;;8.70;6.27;;;24.70;99.90;;;;;;5012392;28;20449;-56
2021/07/10 09:28:43;;;;;;;7.27;6.67;;;25.10;99.90;;;;;;5011843;28;20469;-56
2021/07/10 09:31:25;;;;;;;7.47;6.70;;;25.00;99.90;;;;;;5011932;28;20478;-56
2021/07/10 09:33:58;;;;;;;6.23;5.67;;;25.50;99.90;;;;;;5001430;28;20450;-56
2021/07/10 09:36:24;;;;;;;5.80;5.30;;;26.20;99.90;;;;;;5012256;28;20874;-57
2021/07/10 09:38:53;;;;;;;5.77;5.23;;;26.60;99.90;;;;;;5012048;28;20473;-57
2021/07/10 09:41:26;;;;;;;7.13;6.53;;;26.70;99.90;;;;;;5007528;28;20940;-57
2021/07/10 09:43:56;;;;;;;6.00;5.50;;;26.50;99.90;;;;;;5011685;28;20457;-57
2021/07/10 09:46:27;;;;;;;6.73;6.13;;;26.80;99.90;;;;;;5011894;28;20457;-57
2021/07/10 09:48:55;;;;;;;6.13;5.63;;;25.90;99.90;;;;;;5011786;28;20469;-57
2021/07/10 09:51:24;;;;;;;6.80;6.30;;;25.40;99.90;;;;;;5012121;28;20524;-56
2021/07/10 09:54:01;;;;;;;6.67;6.07;;;25.30;99.90;;;;;;5001739;28;20457;-57
2021/07/10 09:56:29;;;;;;;6.70;6.00;;;25.20;99.90;;;;;;5011609;28;20591;-56
2021/07/10 09:58:57;;;;;;;6.77;6.07;;;25.50;99.90;;;;;;5011844;28;20539;-57
2021/07/10 10:01:33;;;;;;;6.07;5.57;;;25.80;99.90;;;;;;5011882;28;20507;-57
2021/07/10 10:04:00;;;;;;;7.50;6.80;;;26.20;99.90;;;;;;5011055;28;20868;-56
2021/07/10 10:06:34;;;;;;;7.00;5.60;;;25.30;99.90;;;;;;5011493;28;20456;-57
2021/07/10 10:09:17;;;;;;;6.37;5.77;;;24.80;99.90;;;;;;5011597;28;20481;-57
2021/07/10 10:11:55;;;;;;;5.27;4.87;;;25.60;99.90;;;;;;5011415;28;20465;-57
2021/07/10 10:14:23;;;;;;;7.07;6.40;;;25.70;99.90;;;;;;5011648;28;20464;-57
2021/07/10 10:16:51;;;;;;;6.17;5.67;;;25.70;99.90;;;;;;5011699;28;20503;-57
2021/07/10 10:19:20;;;;;;;5.10;4.70;;;25.60;99.90;;;;;;5011348;28;20556;-57
2021/07/10 10:21:52;;;;;;;5.17;4.63;;;25.80;99.90;;;;;;5011308;28;20519;-57
2021/07/10 10:24:22;;;;;;;4.60;4.30;;;26.20;99.90;;;;;;5011652;28;20996;-57
2021/07/10 10:26:50;;;;;;;5.13;4.73;;;26.00;99.90;;;;;;5011553;28;20809;-57
2021/07/10 10:29:19;;;;;;;5.13;4.70;;;25.50;99.90;;;;;;5011239;28;20532;-56
2021/07/10 10:31:47;;;;;;;3.97;3.67;;;25.80;99.90;;;;;;5014123;28;20453;-56
2021/07/10 10:34:15;;;;;;;3.37;3.07;;;26.30;99.90;;;;;;5014825;28;20448;-57
2021/07/10 10:36:44;;;;;;;3.73;3.50;;;26.80;99.90;;;;;;5014896;28;20449;-57
2021/07/10 10:39:14;;;;;;;3.90;3.50;;;27.50;99.90;;;;;;5014969;28;20535;-57
2021/07/10 10:41:45;;;;;;;3.83;3.53;;;27.60;99.90;;;;;;5014881;28;20445;-57
2021/07/10 10:44:13;;;;;;;4.57;4.07;;;28.20;99.90;;;;;;5013834;28;20453;-58
2021/07/10 10:46:52;;;;;;;5.43;4.30;;;27.10;99.90;;;;;;4999713;28;20496;-57
2021/07/10 10:49:35;;;;;;;3.60;3.30;;;27.00;99.90;;;;;;5012870;28;20559;-57
2021/07/10 10:52:23;;;;;;;3.83;3.53;;;26.80;99.90;;;;;;5011832;28;20441;-57
2021/07/10 10:54:52;;;;;;;4.47;3.80;;;27.40;99.90;;;;;;5014797;28;20475;-60
2021/07/10 10:57:41;;;;;;;3.63;3.43;;;27.60;99.90;;;;;;5014496;28;20441;-57
2021/07/10 11:00:15;;;;;;;3.37;3.17;;;27.00;99.90;;;;;;5014855;28;20822;-56
2021/07/10 11:02:59;;;;;;;3.90;3.60;;;26.00;99.90;;;;;;5014688;28;20492;-57
2021/07/10 11:05:54;;;;;;;3.13;2.93;;;25.70;99.90;;;;;;5014496;28;20522;-57
2021/07/10 11:08:23;;;;;;;3.03;2.83;;;26.10;99.90;;;;;;4992841;28;20902;-57
2021/07/10 11:11:20;;;;;;;7.67;4.87;;;26.40;99.90;;;;;;5014359;28;20478;-57
2021/07/10 11:14:00;;;;;;;4.47;4.03;;;26.20;99.90;;;;;;5013769;28;20947;-56
2021/07/10 11:16:27;;;;;;;3.13;2.97;;;26.50;99.90;;;;;;5013580;28;20457;-57
2021/07/10 11:18:55;;;;;;;3.13;2.80;;;26.10;99.90;;;;;;5013964;28;20535;-57
2021/07/10 11:21:45;;;;;;;3.40;3.20;;;25.90;99.90;;;;;;5014065;28;21030;-56
2021/07/10 11:24:24;;;;;;;3.73;3.53;;;25.80;99.90;;;;;;5013329;28;20903;-57
2021/07/10 11:27:25;;;;;;;3.43;3.23;;;25.90;99.90;;;;;;5010252;28;20527;-57
2021/07/10 11:30:18;;;;;;;3.40;3.10;;;25.60;99.90;;;;;;5000210;28;20492;-57
2021/07/10 11:32:45;;;;;;;3.60;3.30;;;25.60;99.90;;;;;;5010777;28;20447;-57
2021/07/10 11:35:32;;;;;;;3.70;3.33;;;25.80;99.90;;;;;;4994888;28;20944;-57
2021/07/10 11:38:00;;;;;;;3.53;3.23;;;26.00;99.90;;;;;;5005122;28;20462;-57
2021/07/10 11:40:37;;;;;;;3.10;2.90;;;26.30;99.90;;;;;;5013791;28;20477;-57
2021/07/10 11:43:11;;;;;;;3.40;3.20;;;26.00;99.90;;;;;;4993663;28;20449;-57
2021/07/10 11:45:48;;;;;;;3.67;3.37;;;26.00;99.90;;;;;;4994796;28;20450;-57
2021/07/10 11:48:26;;;;;;;3.60;3.40;;;26.00;99.90;;;;;;5006948;28;20452;-57
2021/07/10 11:51:09;;;;;;;3.57;3.37;;;25.80;99.90;;;;;;4995652;28;20573;-57
2021/07/10 11:53:37;;;;;;;3.70;3.40;;;25.70;99.90;;;;;;5001645;28;20449;-57
2021/07/10 11:56:04;;;;;;;3.30;3.10;;;25.80;99.90;;;;;;5014081;28;20445;-56
2021/07/10 11:58:32;;;;;;;3.57;3.27;;;26.20;99.90;;;;;;5013523;28;20809;-56
2021/07/10 12:01:04;;;;;;;3.87;3.57;;;26.40;99.90;;;;;;5013777;28;20446;-56
2021/07/10 12:03:32;;;;;;;3.80;3.50;;;25.90;99.90;;;;;;5013924;28;20515;-56
2021/07/10 12:06:00;;;;;;;3.80;3.53;;;25.70;99.90;;;;;;5013642;28;20966;-57
2021/07/10 12:08:29;;;;;;;3.83;3.53;;;25.50;99.90;;;;;;5013238;28;20524;-57
2021/07/10 12:10:56;;;;;;;3.80;3.40;;;25.30;99.90;;;;;;5013468;28;20481;-57
2021/07/10 12:13:27;;;;;;;3.90;3.60;;;25.60;99.90;;;;;;5013353;28;20449;-57
2021/07/10 12:15:56;;;;;;;4.07;3.77;;;25.50;99.90;;;;;;5013667;28;20504;-57
2021/07/10 12:18:27;;;;;;;4.17;3.87;;;25.40;99.90;;;;;;5013348;28;20959;-55
2021/07/10 12:20:56;;;;;;;3.87;3.53;;;25.50;99.90;;;;;;5013673;28;20437;-57
2021/07/10 12:23:25;;;;;;;4.40;4.00;;;25.60;99.90;;;;;;5013320;28;20515;-57
2021/07/10 12:25:55;;;;;;;4.00;3.70;;;25.70;99.90;;;;;;5007759;28;20869;-57
2021/07/10 12:28:41;;;;;;;4.20;3.83;;;25.50;99.90;;;;;;5004840;28;21020;-57
2021/07/10 12:31:15;;;;;;;4.37;3.83;;;25.60;99.90;;;;;;5008372;28;20539;-57
2021/07/10 12:33:46;;;;;;;3.70;3.40;;;25.70;99.90;;;;;;5009340;28;20453;-58
2021/07/10 12:36:22;;;;;;;4.03;3.70;;;25.80;99.90;;;;;;5013233;28;20504;-57
2021/07/10 12:39:10;;;;;;;3.63;3.37;;;25.90;99.90;;;;;;5012772;28;20511;-57
2021/07/10 12:41:42;;;;;;;4.20;3.90;;;25.40;99.90;;;;;;5012995;28;20531;-57
2021/07/10 12:44:28;;;;;;;6.37;3.60;;;25.60;99.90;;;;;;5012946;28;20449;-57
2021/07/10 12:47:03;;;;;;;5.23;4.73;;;25.60;99.90;;;;;;5011530;28;20441;-57
2021/07/10 12:49:34;;;;;;;4.10;3.80;;;25.80;99.90;;;;;;5012248;28;20480;-57
2021/07/10 12:52:03;;;;;;;3.77;3.50;;;25.60;99.90;;;;;;5012314;28;20466;-57
2021/07/10 12:54:43;;;;;;;4.77;4.37;;;25.60;99.90;;;;;;5012309;28;20450;-56
2021/07/10 12:57:32;;;;;;;3.90;3.57;;;25.80;99.90;;;;;;5012313;28;20991;-57